createdAt,value
2022-07-29T00:00:46.343Z,91.32
2022-07-29T00:05:47.898Z,90.77
2022-07-29T00:10:49.624Z,91.58
2022-07-29T00:15:51.210Z,90.74
2022-07-29T00:20:52.831Z,91.87
2022-07-29T00:26:00.405Z,91.27
2022-07-29T00:31:02.041Z,91.46
2022-07-29T00:36:03.922Z,92.83
2022-07-29T00:41:05.633Z,96.22
2022-07-29T00:46:21.427Z,95.77
2022-07-29T00:51:23.444Z,97.11
2022-07-29T00:56:24.982Z,98.83
2022-07-29T01:01:27.320Z,100.00
2022-07-29T01:06:29.218Z,100.00
2022-07-29T01:11:30.947Z,100.00
2022-07-29T01:16:36.329Z,100.00
2022-07-29T01:21:53.296Z,100.00
2022-07-29T01:27:27.306Z,100.00
2022-07-29T01:32:32.332Z,100.00
2022-07-29T01:37:38.825Z,100.00
2022-07-29T01:42:44.725Z,100.00
2022-07-29T01:48:12.839Z,100.00
2022-07-29T01:53:19.088Z,100.00
2022-07-29T01:58:22.506Z,100.00
2022-07-29T02:03:24.965Z,100.00
2022-07-29T02:08:29.106Z,100.00
2022-07-29T02:13:32.816Z,100.00
2022-07-29T02:18:37.002Z,100.00
2022-07-29T02:23:51.012Z,100.00
2022-07-29T02:28:57.566Z,100.00
2022-07-29T02:34:01.364Z,100.00
2022-07-29T02:39:05.082Z,100.00
2022-07-29T02:44:11.691Z,100.00
2022-07-29T02:49:22.219Z,100.00
2022-07-29T02:54:32.096Z,100.00
2022-07-29T02:59:35.359Z,100.00
2022-07-29T03:04:41.070Z,100.00
2022-07-29T03:09:43.875Z,100.00
2022-07-29T03:14:46.035Z,100.00
2022-07-29T03:19:47.954Z,100.00
2022-07-29T03:24:49.544Z,100.00
2022-07-29T03:29:51.171Z,100.00
2022-07-29T03:34:52.904Z,100.00
2022-07-29T03:39:56.731Z,100.00
2022-07-29T03:45:04.466Z,100.00
2022-07-29T03:50:13.037Z,100.00
2022-07-29T03:55:15.900Z,100.00
2022-07-29T04:00:17.859Z,100.00
2022-07-29T04:05:20.302Z,100.00
2022-07-29T04:10:25.199Z,100.00
2022-07-29T04:15:33.020Z,100.00
2022-07-29T04:20:34.628Z,100.00
2022-07-29T04:25:40.936Z,100.00
2022-07-29T04:30:42.479Z,100.00
2022-07-29T04:35:50.481Z,100.00
2022-07-29T04:40:53.917Z,100.00
2022-07-29T04:45:56.215Z,100.00
2022-07-29T04:50:58.191Z,100.00
2022-07-29T04:56:00.286Z,100.00
2022-07-29T05:01:01.974Z,100.00
2022-07-29T05:06:03.725Z,100.00
2022-07-29T05:11:12.087Z,100.00
2022-07-29T05:16:41.264Z,100.00
2022-07-29T05:21:42.975Z,100.00
2022-07-29T05:26:44.791Z,100.00
2022-07-29T05:31:46.475Z,100.00
2022-07-29T05:36:48.060Z,100.00
2022-07-29T05:41:51.956Z,100.00
2022-07-29T05:46:53.710Z,100.00
2022-07-29T05:51:55.329Z,100.00
2022-07-29T05:56:56.966Z,100.00
2022-07-29T06:01:59.033Z,100.00
2022-07-29T06:07:00.632Z,100.00
2022-07-29T06:12:02.430Z,100.00
2022-07-29T06:17:04.031Z,100.00
2022-07-29T06:22:05.758Z,100.00
2022-07-29T06:27:07.319Z,100.00
2022-07-29T06:32:10.155Z,100.00
2022-07-29T06:37:15.375Z,100.00
2022-07-29T06:42:17.377Z,100.00
2022-07-29T06:47:18.940Z,100.00
2022-07-29T06:52:20.798Z,100.00
2022-07-29T06:57:23.166Z,100.00
2022-07-29T07:02:24.820Z,100.00
2022-07-29T07:07:26.721Z,100.00
2022-07-29T07:12:28.387Z,100.00
2022-07-29T07:17:30.212Z,100.00
2022-07-29T07:22:35.662Z,100.00
2022-07-29T07:27:40.279Z,100.00
2022-07-29T07:32:41.894Z,100.00
2022-07-29T07:37:43.612Z,100.00
2022-07-29T07:42:45.565Z,100.00
2022-07-29T07:47:47.747Z,100.00
2022-07-29T07:52:52.959Z,100.00
2022-07-29T07:57:57.329Z,100.00
2022-07-29T08:02:59.602Z,100.00
2022-07-29T08:08:01.222Z,100.00
2022-07-29T08:13:07.748Z,100.00
2022-07-29T08:18:09.670Z,100.00
2022-07-29T08:23:11.297Z,100.00
2022-07-29T08:28:12.990Z,100.00
2022-07-29T08:33:14.751Z,100.00
2022-07-29T08:38:16.292Z,100.00
2022-07-29T08:43:17.916Z,100.00
2022-07-29T08:48:22.368Z,100.00
2022-07-29T08:53:27.432Z,100.00
2022-07-29T08:58:36.522Z,100.00
2022-07-29T09:03:40.580Z,100.00
2022-07-29T09:08:42.779Z,100.00
2022-07-29T09:13:45.544Z,100.00
2022-07-29T09:18:48.183Z,100.00
2022-07-29T09:24:13.037Z,100.00
2022-07-29T09:29:19.938Z,100.00
2022-07-29T09:34:29.572Z,100.00
2022-07-29T09:39:33.284Z,100.00
2022-07-29T09:44:49.498Z,100.00
2022-07-29T09:49:52.798Z,100.00
2022-07-29T09:54:57.215Z,100.00
2022-07-29T10:00:09.544Z,100.00
2022-07-29T10:05:25.099Z,100.00
2022-07-29T10:10:32.889Z,100.00
2022-07-29T10:15:41.640Z,100.00
2022-07-29T10:20:43.239Z,100.00
2022-07-29T10:25:47.076Z,100.00
2022-07-29T10:30:52.396Z,100.00
2022-07-29T10:36:06.021Z,100.00
2022-07-29T10:41:32.065Z,100.00
2022-07-29T10:46:38.659Z,100.00
2022-07-29T10:57:54.645Z,100.00
2022-07-29T11:02:52.174Z,100.00
2022-07-29T11:08:19.983Z,100.00
2022-07-29T11:13:44.678Z,100.00
2022-07-29T11:19:13.610Z,100.00
2022-07-29T11:29:58.533Z,100.00
2022-07-29T11:35:38.556Z,100.00
2022-07-29T11:40:42.584Z,100.00
2022-07-29T11:45:48.039Z,100.00
2022-07-29T11:50:50.255Z,100.00
2022-07-29T11:55:56.320Z,100.00
2022-07-29T12:01:04.123Z,100.00
2022-07-29T12:11:38.729Z,100.00
2022-07-29T12:16:41.542Z,100.00
2022-07-29T12:21:56.225Z,100.00
2022-07-29T12:27:00.251Z,100.00
2022-07-29T12:32:02.910Z,100.00
2022-07-29T12:37:04.902Z,100.00
2022-07-29T12:42:14.829Z,100.00
2022-07-29T12:47:19.164Z,97.82
2022-07-29T12:52:34.519Z,92.37
2022-07-29T12:57:47.974Z,93.91
2022-07-29T13:02:56.890Z,100.00
2022-07-29T13:08:21.895Z,88.60
2022-07-29T13:13:24.008Z,88.24
2022-07-29T13:18:33.731Z,84.03
2022-07-29T13:23:38.390Z,94.49
2022-07-29T13:28:40.943Z,78.41
2022-07-29T13:33:45.950Z,80.33
2022-07-29T13:38:48.125Z,89.19
2022-07-29T13:43:50.095Z,82.69
2022-07-29T13:48:51.822Z,86.85
2022-07-29T13:53:56.796Z,84.21
2022-07-29T13:58:58.457Z,98.98
2022-07-29T14:04:00.148Z,100.00
2022-07-29T14:09:03.509Z,100.00
2022-07-29T14:14:05.840Z,100.00
2022-07-29T14:19:07.401Z,100.00
2022-07-29T14:24:16.225Z,92.15
2022-07-29T14:29:23.529Z,98.34
2022-07-29T14:34:40.630Z,93.09
2022-07-29T14:39:43.278Z,92.22
2022-07-29T14:44:45.249Z,79.85
2022-07-29T14:49:48.571Z,80.84
2022-07-29T14:54:50.193Z,83.27
2022-07-29T14:59:51.751Z,76.26
2022-07-29T15:04:53.403Z,74.14
2022-07-29T15:09:59.535Z,66.83
2022-07-29T15:15:01.358Z,68.11
2022-07-29T15:20:05.930Z,69.64
2022-07-29T15:25:08.093Z,57.60
2022-07-29T15:30:10.575Z,62.29
2022-07-29T15:35:29.493Z,69.72
2022-07-29T15:40:31.166Z,76.63
2022-07-29T15:45:40.526Z,67.84
2022-07-29T15:50:42.227Z,70.14
2022-07-29T15:55:48.689Z,63.22
2022-07-29T16:00:50.421Z,67.86
2022-07-29T16:05:52.069Z,61.02
2022-07-29T16:10:53.814Z,56.56
2022-07-29T16:16:02.343Z,74.28
2022-07-29T16:21:04.652Z,68.40
2022-07-29T16:26:06.591Z,68.76
2022-07-29T16:31:09.113Z,65.29
2022-07-29T16:36:10.758Z,65.35
2022-07-29T16:41:14.947Z,75.92
2022-07-29T16:46:19.064Z,73.10
2022-07-29T16:51:21.222Z,73.05
2022-07-29T16:56:24.911Z,67.11
2022-07-29T17:01:26.585Z,66.21
2022-07-29T17:06:29.658Z,57.04
2022-07-29T17:11:51.990Z,64.95
2022-07-29T17:17:01.396Z,57.94
2022-07-29T17:22:18.755Z,66.05
2022-07-29T17:27:20.844Z,66.63
2022-07-29T17:32:23.417Z,73.82
2022-07-29T17:37:24.994Z,80.02
2022-07-29T17:42:26.617Z,76.73
2022-07-29T17:47:28.150Z,86.59
2022-07-29T17:52:29.752Z,90.64
2022-07-29T17:57:31.407Z,100.00
2022-07-29T18:02:33.522Z,98.00
2022-07-29T18:07:35.235Z,100.00
2022-07-29T18:12:38.820Z,100.00
2022-07-29T18:17:57.326Z,100.00
2022-07-29T18:23:00.365Z,100.00
2022-07-29T18:28:05.002Z,100.00
2022-07-29T18:33:21.701Z,100.00
2022-07-29T18:38:24.018Z,100.00
2022-07-29T18:43:25.716Z,100.00
2022-07-29T18:48:28.364Z,100.00
2022-07-29T18:53:29.919Z,100.00
2022-07-29T18:58:33.428Z,100.00
2022-07-29T19:03:35.275Z,100.00
2022-07-29T19:08:36.833Z,100.00
2022-07-29T19:13:38.939Z,100.00
2022-07-29T19:18:40.628Z,100.00
2022-07-29T19:24:05.909Z,100.00
2022-07-29T19:29:04.327Z,100.00
2022-07-29T19:34:05.932Z,100.00
2022-07-29T19:39:07.628Z,100.00
2022-07-29T19:44:11.295Z,100.00
2022-07-29T19:49:13.693Z,100.00
2022-07-29T19:54:18.241Z,100.00
2022-07-29T19:59:20.070Z,100.00
2022-07-29T20:04:26.191Z,100.00
2022-07-29T20:09:29.857Z,100.00
2022-07-29T20:14:31.587Z,100.00
2022-07-29T20:19:33.544Z,100.00
2022-07-29T20:24:36.225Z,100.00
2022-07-29T20:29:38.385Z,100.00
2022-07-29T20:34:43.425Z,100.00
2022-07-29T20:39:47.832Z,100.00
2022-07-29T20:44:51.098Z,100.00
2022-07-29T20:49:53.062Z,100.00
2022-07-29T20:54:54.669Z,100.00
2022-07-29T20:59:56.271Z,100.00
2022-07-29T21:04:57.886Z,100.00
2022-07-29T21:09:59.447Z,100.00
2022-07-29T21:15:05.707Z,100.00
2022-07-29T21:20:08.640Z,100.00
2022-07-29T21:25:11.093Z,100.00
2022-07-29T21:30:12.807Z,100.00
2022-07-29T21:35:35.991Z,100.00
2022-07-29T21:40:36.122Z,100.00
2022-07-29T21:45:37.914Z,100.00
2022-07-29T21:50:41.529Z,100.00
2022-07-29T21:55:43.611Z,100.00
2022-07-29T22:00:45.663Z,100.00
2022-07-29T22:05:47.259Z,100.00
2022-07-29T22:10:48.877Z,100.00
2022-07-29T22:15:52.671Z,100.00
2022-07-29T22:20:54.267Z,100.00
2022-07-29T22:25:55.823Z,100.00
2022-07-29T22:30:59.482Z,100.00
2022-07-29T22:36:01.165Z,100.00
2022-07-29T22:41:05.769Z,100.00
2022-07-29T22:46:09.879Z,100.00
2022-07-29T22:51:11.488Z,100.00
2022-07-29T22:56:13.323Z,100.00
2022-07-29T23:01:15.636Z,100.00
2022-07-29T23:06:17.349Z,100.00
2022-07-29T23:11:18.881Z,100.00
2022-07-29T23:16:26.158Z,100.00
2022-07-29T23:21:28.742Z,100.00
2022-07-29T23:26:31.759Z,100.00
2022-07-29T23:31:34.757Z,100.00
2022-07-29T23:36:43.587Z,100.00
2022-07-29T23:41:45.115Z,100.00
2022-07-29T23:46:46.726Z,100.00
2022-07-29T23:51:48.266Z,100.00
2022-07-29T23:56:49.853Z,100.00
